Time;durP1;ratioP1;P1;durP2;ratioP2;P2;SDS_P1;SDS_P2;PMS_P1;PMS_P2;Temp;Humidity;BMP_temperature;BMP_pressure;BME280_temperature;BME280_humidity;BME280_pressure;Samples;Min_cycle;Max_cycle;Signal;HPM_P1;HPM_P2
2021/10/06 00:00:35;;;;;;;8.90;6.25;;;;;;;10.36;64.57;101983.95;1773495;81;20928;-72
2021/10/06 00:03:01;;;;;;;9.25;5.85;;;;;;;10.30;64.94;101982.47;1772351;81;21053;-74
2021/10/06 00:05:28;;;;;;;9.75;5.90;;;;;;;10.24;65.21;101977.53;1773567;81;21341;-72
2021/10/06 00:07:55;;;;;;;11.25;6.00;;;;;;;10.19;65.42;101976.88;1773669;81;22167;-72
2021/10/06 00:10:21;;;;;;;8.88;6.50;;;;;;;10.17;65.57;101976.11;1773457;81;21527;-72
2021/10/06 00:12:47;;;;;;;9.08;5.97;;;;;;;10.16;65.63;101974.41;1773907;81;21030;-72
2021/10/06 00:15:14;;;;;;;11.88;6.12;;;;;;;10.12;65.91;101976.80;1773740;81;20944;-72
2021/10/06 00:17:41;;;;;;;10.90;6.10;;;;;;;10.08;66.06;101980.54;1773361;81;21058;-73
2021/10/06 00:20:11;;;;;;;10.68;6.28;;;;;;;10.04;66.16;101979.00;1772736;81;21865;-71
2021/10/06 00:22:38;;;;;;;10.60;6.10;;;;;;;10.00;66.19;101974.80;1785959;80;21395;-71
2021/10/06 00:25:05;;;;;;;8.23;5.70;;;;;;;9.99;66.26;101978.38;1763169;81;20979;-71
2021/10/06 00:27:34;;;;;;;8.33;6.00;;;;;;;9.96;66.26;101974.11;1760372;81;20952;-71
2021/10/06 00:30:01;;;;;;;9.20;6.03;;;;;;;9.94;66.25;101967.19;1733396;81;21530;-72
2021/10/06 00:32:27;;;;;;;11.08;5.65;;;;;;;9.91;66.30;101980.08;1765274;81;22210;-72
2021/10/06 00:34:54;;;;;;;10.25;6.10;;;;;;;9.86;66.34;101972.03;1765245;81;20936;-71
2021/10/06 00:37:20;;;;;;;8.68;5.67;;;;;;;9.83;66.43;101972.16;1758525;81;21003;-72
2021/10/06 00:39:46;;;;;;;9.15;6.45;;;;;;;9.82;66.48;101981.02;1735023;82;21574;-71
2021/10/06 00:42:13;;;;;;;8.75;6.50;;;;;;;9.78;66.67;101972.87;1735239;82;20952;-71
2021/10/06 00:44:40;;;;;;;8.95;6.17;;;;;;;9.77;66.74;101976.45;1734879;82;22170;-72
2021/10/06 00:47:11;;;;;;;11.48;6.20;;;;;;;9.74;66.83;101976.11;1734969;82;20948;-71
2021/10/06 00:49:40;;;;;;;6.47;4.47;;;;;;;9.72;66.88;101980.16;1705190;82;21006;-71
2021/10/06 00:52:11;;;;;;;7.53;5.83;;;;;;;9.72;66.91;101983.27;1734881;82;21023;-71
2021/10/06 00:54:37;;;;;;;10.10;5.72;;;;;;;9.71;66.93;101978.45;1735140;81;21038;-71
2021/10/06 00:57:04;;;;;;;9.18;6.08;;;;;;;9.71;67.09;101974.96;1734977;81;22270;-73
2021/10/06 00:59:32;;;;;;;12.00;6.12;;;;;;;9.71;67.16;101978.92;1734849;81;21039;-73
2021/10/06 01:01:59;;;;;;;8.25;5.67;;;;;;;9.71;67.17;101975.81;1734983;81;21062;-71
2021/10/06 01:04:25;;;;;;;8.90;6.12;;;;;;;9.72;67.28;101977.52;1735165;82;20963;-72
2021/10/06 01:06:53;;;;;;;5.85;5.22;;;;;;;9.73;67.28;101980.54;1734944;82;21020;-71
2021/10/06 01:09:19;;;;;;;7.78;5.30;;;;;;;9.76;67.29;101975.59;1704305;82;21495;-73
2021/10/06 01:11:46;;;;;;;8.50;5.92;;;;;;;9.78;67.30;101972.87;1747187;81;20948;-72
2021/10/06 01:14:13;;;;;;;6.97;5.45;;;;;;;9.77;67.25;101973.34;1765283;81;21003;-71
2021/10/06 01:16:39;;;;;;;8.80;5.92;;;;;;;9.73;67.34;101973.94;1765446;81;20996;-72
2021/10/06 01:19:22;;;;;;;6.35;5.70;;;;;;;9.69;67.61;101968.91;1733569;81;20938;-71
2021/10/06 01:21:50;;;;;;;11.35;5.90;;;;;;;9.67;67.70;101963.72;1765387;81;22283;-72
2021/10/06 01:24:16;;;;;;;8.48;5.53;;;;;;;9.64;67.79;101962.53;1765005;80;20956;-72
2021/10/06 01:26:43;;;;;;;7.20;5.67;;;;;;;9.60;68.09;101968.91;1765327;81;20991;-72
2021/10/06 01:29:09;;;;;;;8.55;5.60;;;;;;;9.59;68.18;101970.30;1764149;81;20979;-72
2021/10/06 01:31:36;;;;;;;9.33;5.83;;;;;;;9.56;68.51;101980.55;1765333;81;20940;-71
2021/10/06 01:34:02;;;;;;;7.37;5.95;;;;;;;9.55;68.56;101985.87;1765325;81;22873;-71
2021/10/06 01:36:28;;;;;;;8.00;5.72;;;;;;;9.54;68.67;101982.86;1765185;81;20992;-71
2021/10/06 01:38:55;;;;;;;8.00;6.15;;;;;;;9.50;68.84;101980.84;1765264;81;20940;-73
2021/10/06 01:41:21;;;;;;;11.22;5.87;;;;;;;9.50;68.82;101983.48;1765428;81;20999;-71
2021/10/06 01:43:47;;;;;;;12.00;6.50;;;;;;;9.48;68.89;101977.44;1765293;81;21023;-71
2021/10/06 01:46:17;;;;;;;10.08;5.85;;;;;;;9.48;68.88;101977.44;1764214;81;21822;-71
2021/10/06 01:48:44;;;;;;;9.08;6.08;;;;;;;9.45;69.03;101981.52;1765148;81;20943;-70
2021/10/06 01:51:10;;;;;;;10.38;6.17;;;;;;;9.42;69.09;101982.53;1765543;81;21463;-70
2021/10/06 01:53:39;;;;;;;8.23;5.97;;;;;;;9.41;69.09;101983.93;1765197;81;21340;-71
2021/10/06 01:56:05;;;;;;;8.73;5.92;;;;;;;9.39;69.15;101984.02;1765507;81;20936;-71
2021/10/06 01:58:31;;;;;;;11.43;6.95;;;;;;;9.41;69.16;101991.84;1765368;81;22426;-70
2021/10/06 02:00:58;;;;;;;8.93;6.20;;;;;;;9.41;69.17;101991.84;1765578;81;20991;-71
2021/10/06 02:03:24;;;;;;;12.07;6.08;;;;;;;9.38;69.24;101995.95;1763875;81;20944;-71
2021/10/06 02:05:50;;;;;;;10.25;6.22;;;;;;;9.36;69.37;101998.67;1765496;81;21007;-72
2021/10/06 02:08:17;;;;;;;8.88;6.17;;;;;;;9.36;69.39;101992.08;1765323;81;21047;-71
2021/10/06 02:10:44;;;;;;;8.83;6.35;;;;;;;9.34;69.50;101986.00;1765270;81;22394;-71
2021/10/06 02:13:11;;;;;;;8.00;5.75;;;;;;;9.33;69.60;101986.08;1765173;81;20983;-71
2021/10/06 02:15:38;;;;;;;9.08;6.15;;;;;;;9.32;69.67;101994.92;1765228;81;21068;-71
2021/10/06 02:18:04;;;;;;;6.92;5.87;;;;;;;9.30;69.77;102000.28;1765344;81;21374;-71
2021/10/06 02:20:31;;;;;;;7.75;6.25;;;;;;;9.28;69.82;102001.28;1764009;81;21055;-72
2021/10/06 02:22:57;;;;;;;9.85;6.42;;;;;;;9.25;70.03;102006.22;1765246;80;21796;-71
2021/10/06 02:25:25;;;;;;;8.55;6.25;;;;;;;9.20;70.16;102005.60;1765217;81;21375;-72
2021/10/06 02:27:51;;;;;;;11.18;6.55;;;;;;;9.15;70.35;102012.86;1765210;81;20988;-72
2021/10/06 02:30:18;;;;;;;10.50;6.60;;;;;;;9.11;70.69;102016.11;1765119;81;21011;-71
2021/10/06 02:32:45;;;;;;;7.85;6.03;;;;;;;9.10;70.77;102018.83;1765263;81;20940;-72
2021/10/06 02:35:12;;;;;;;7.67;6.08;;;;;;;9.09;70.93;102016.66;1765158;81;22671;-72
2021/10/06 02:37:39;;;;;;;8.25;6.05;;;;;;;9.09;70.96;102019.30;1764278;81;20987;-72
2021/10/06 02:40:07;;;;;;;8.73;6.28;;;;;;;9.11;71.00;102018.75;1765107;81;20992;-72
2021/10/06 02:42:35;;;;;;;7.97;6.28;;;;;;;9.12;71.04;102012.55;1765697;81;20948;-72
2021/10/06 02:45:03;;;;;;;10.00;6.30;;;;;;;9.13;70.98;102018.67;1765200;81;20983;-71
2021/10/06 02:47:30;;;;;;;8.60;6.55;;;;;;;9.14;71.01;102020.37;1765341;81;21445;-72
2021/10/06 02:49:56;;;;;;;9.18;6.50;;;;;;;9.13;71.06;102023.48;1765120;81;21051;-72
2021/10/06 02:52:23;;;;;;;8.95;6.08;;;;;;;9.15;71.01;102030.00;1765474;81;20928;-71
2021/10/06 02:54:49;;;;;;;10.60;6.50;;;;;;;9.12;71.29;102028.37;1739361;79;20987;-72
2021/10/06 02:57:16;;;;;;;10.35;6.60;;;;;;;9.13;71.38;102027.44;1735167;82;20992;-71
2021/10/06 02:59:42;;;;;;;9.10;6.00;;;;;;;9.14;71.50;102031.78;1734913;82;22213;-71
2021/10/06 03:02:09;;;;;;;7.92;5.55;;;;;;;9.16;71.61;102031.23;1735222;82;21003;-72
2021/10/06 03:04:36;;;;;;;7.58;6.42;;;;;;;9.15;71.71;102030.84;1734964;82;21418;-72
2021/10/06 03:07:02;;;;;;;10.25;6.55;;;;;;;9.20;71.87;102036.38;1735207;82;20964;-71
2021/10/06 03:09:29;;;;;;;9.53;6.30;;;;;;;9.23;71.89;102042.36;1703634;82;21066;-71
2021/10/06 03:11:55;;;;;;;7.22;5.75;;;;;;;9.26;72.03;102039.56;1762237;81;21802;-71
2021/10/06 03:14:21;;;;;;;9.28;6.05;;;;;;;9.31;72.02;102042.85;1765322;81;20979;-71
2021/10/06 03:16:48;;;;;;;8.25;6.05;;;;;;;9.33;71.91;102046.27;1765328;81;21386;-72
2021/10/06 03:19:15;;;;;;;9.68;6.10;;;;;;;9.33;71.88;102041.45;1733171;81;20959;-71
2021/10/06 03:21:41;;;;;;;9.40;6.22;;;;;;;9.34;71.90;102043.16;1765384;81;20984;-72
2021/10/06 03:24:08;;;;;;;7.45;5.83;;;;;;;9.34;71.88;102042.70;1762383;80;22199;-72
2021/10/06 03:26:34;;;;;;;7.47;6.05;;;;;;;9.36;71.90;102049.21;1744579;81;20940;-72
2021/10/06 03:29:01;;;;;;;9.88;5.87;;;;;;;9.38;71.95;102047.38;1730941;81;20995;-71
2021/10/06 03:31:27;;;;;;;9.30;6.53;;;;;;;9.39;71.87;102053.05;1729770;82;21043;-72
2021/10/06 03:33:53;;;;;;;9.18;6.05;;;;;;;9.37;71.85;102050.48;1729597;82;21426;-72
2021/10/06 03:36:20;;;;;;;13.13;6.60;;;;;;;9.36;71.85;102055.80;1729816;83;22165;-72
2021/10/06 03:38:46;;;;;;;7.53;6.08;;;;;;;9.36;71.85;102045.25;1729322;83;20980;-71
2021/10/06 03:41:13;;;;;;;8.95;6.17;;;;;;;9.36;71.85;102050.09;1729776;82;20957;-71
2021/10/06 03:43:39;;;;;;;8.63;6.15;;;;;;;9.36;71.88;102046.14;1729463;82;21052;-71
2021/10/06 03:46:06;;;;;;;11.57;6.03;;;;;;;9.36;71.88;102045.25;1730465;81;20947;-72
2021/10/06 03:48:33;;;;;;;8.10;6.12;;;;;;;9.38;71.90;102053.52;1729398;83;22244;-71
2021/10/06 03:51:00;;;;;;;10.70;6.12;;;;;;;9.39;71.93;102051.27;1729489;82;20908;-72
2021/10/06 03:53:26;;;;;;;9.85;6.30;;;;;;;9.41;71.95;102048.08;1738509;81;20943;-71
2021/10/06 03:55:52;;;;;;;8.80;6.25;;;;;;;9.42;71.92;102050.25;1759990;81;20997;-72
2021/10/06 03:58:19;;;;;;;7.70;6.17;;;;;;;9.42;71.95;102052.89;1759651;81;21003;-72
2021/10/06 04:00:45;;;;;;;10.05;6.22;;;;;;;9.43;71.99;102051.95;1759302;81;22848;-72
2021/10/06 04:03:12;;;;;;;8.25;6.20;;;;;;;9.43;71.94;102058.55;1729496;81;20960;-70
2021/10/06 04:05:39;;;;;;;6.03;5.30;;;;;;;9.42;71.90;102060.80;1729475;83;20988;-70
2021/10/06 04:08:06;;;;;;;8.78;6.30;;;;;;;9.42;71.97;102060.80;1729404;83;21016;-70
2021/10/06 04:10:32;;;;;;;9.20;6.53;;;;;;;9.44;71.99;102058.94;1729513;82;21366;-71
2021/10/06 04:12:59;;;;;;;8.28;6.33;;;;;;;9.48;71.97;102060.98;1729410;83;22305;-72
2021/10/06 04:15:26;;;;;;;9.70;6.25;;;;;;;9.49;71.90;102053.45;1729454;81;20984;-71
2021/10/06 04:17:53;;;;;;;7.80;6.40;;;;;;;9.50;71.80;102061.30;1730829;81;20948;-72
2021/10/06 04:20:19;;;;;;;11.80;6.15;;;;;;;9.52;71.68;102062.53;1759634;81;21040;-71
2021/10/06 04:22:45;;;;;;;7.83;5.55;;;;;;;9.53;71.57;102070.37;1759647;81;20971;-71
2021/10/06 04:25:12;;;;;;;10.18;6.47;;;;;;;9.52;71.42;102069.12;1764157;80;22413;-71
2021/10/06 04:27:38;;;;;;;7.03;5.90;;;;;;;9.51;71.30;102068.27;1765109;81;21031;-72
2021/10/06 04:30:06;;;;;;;6.72;5.62;;;;;;;9.52;71.22;102071.30;1765461;79;21028;-72
2021/10/06 04:32:34;;;;;;;8.50;6.12;;;;;;;9.54;71.12;102080.45;1765467;81;21019;-71
2021/10/06 04:35:01;;;;;;;8.10;6.05;;;;;;;9.54;71.07;102076.03;1765178;81;21458;-72
2021/10/06 04:37:27;;;;;;;12.18;5.72;;;;;;;9.55;71.02;102080.38;1765559;79;22208;-71
2021/10/06 04:39:54;;;;;;;9.68;6.10;;;;;;;9.56;71.05;102070.24;1765230;81;21417;-71
2021/10/06 04:42:23;;;;;;;13.10;6.10;;;;;;;9.59;71.02;102080.63;1765333;81;21376;-72
2021/10/06 04:44:49;;;;;;;8.38;6.00;;;;;;;9.60;70.98;102082.34;1765587;81;20989;-71
2021/10/06 04:47:15;;;;;;;9.65;6.40;;;;;;;9.60;70.97;102086.30;1765742;81;20979;-71
2021/10/06 04:49:42;;;;;;;10.85;5.62;;;;;;;9.63;70.92;102085.28;1765473;81;21771;-72
2021/10/06 04:52:08;;;;;;;9.13;5.97;;;;;;;9.65;70.91;102089.59;1759582;81;21514;-73
2021/10/06 04:54:35;;;;;;;9.45;6.30;;;;;;;9.67;70.87;102091.68;1734547;81;20952;-73
2021/10/06 04:57:02;;;;;;;9.38;5.87;;;;;;;9.70;70.82;102088.88;1734868;82;21047;-73
2021/10/06 04:59:29;;;;;;;10.50;6.40;;;;;;;9.71;70.67;102088.41;1734993;82;20993;-72
2021/10/06 05:01:56;;;;;;;11.03;6.17;;;;;;;9.72;70.55;102085.70;1723698;81;22243;-70
2021/10/06 05:04:23;;;;;;;11.73;6.35;;;;;;;9.73;70.43;102083.91;1732453;82;20944;-70
2021/10/06 05:06:49;;;;;;;12.25;6.20;;;;;;;9.77;70.33;102095.20;1732224;82;21048;-70
2021/10/06 05:09:17;;;;;;;16.35;6.40;;;;;;;9.80;70.23;102097.20;1737895;81;20980;-70
2021/10/06 05:11:44;;;;;;;8.13;5.97;;;;;;;9.84;70.10;102096.58;1762562;81;21415;-71
2021/10/06 05:14:11;;;;;;;11.22;5.72;;;;;;;9.89;70.07;102099.86;1762823;81;22197;-71
2021/10/06 05:16:39;;;;;;;7.37;5.80;;;;;;;9.93;69.92;102102.27;1762463;81;20976;-71
2021/10/06 05:19:05;;;;;;;11.20;6.03;;;;;;;9.96;69.72;102106.09;1762936;81;20935;-71
2021/10/06 05:21:33;;;;;;;9.73;5.75;;;;;;;10.01;69.65;102112.45;1762577;81;20943;-71
2021/10/06 05:23:59;;;;;;;9.88;5.95;;;;;;;10.04;69.34;102113.17;1762274;81;21463;-72
2021/10/06 05:26:26;;;;;;;7.17;5.67;;;;;;;10.06;69.19;102105.64;1761282;81;21731;-70
2021/10/06 05:28:54;;;;;;;9.35;6.03;;;;;;;10.08;69.16;102116.97;1762471;81;20941;-71
2021/10/06 05:31:21;;;;;;;6.85;5.80;;;;;;;10.10;69.29;102119.06;1762633;81;20984;-71
2021/10/06 05:33:49;;;;;;;8.78;6.15;;;;;;;10.10;69.54;102121.23;1762524;81;21063;-71
2021/10/06 05:36:16;;;;;;;10.05;6.33;;;;;;;10.09;69.78;102122.17;1762438;81;20929;-71
2021/10/06 05:38:43;;;;;;;11.05;6.12;;;;;;;10.11;69.89;102130.87;1762781;81;22173;-71
2021/10/06 05:41:10;;;;;;;11.95;5.97;;;;;;;10.14;69.95;102128.09;1762505;81;21100;-71
2021/10/06 05:43:37;;;;;;;9.53;6.60;;;;;;;10.17;69.93;102126.61;1752630;81;20948;-72
2021/10/06 05:46:03;;;;;;;9.85;6.00;;;;;;;10.19;69.93;102132.66;1732110;82;20960;-71
2021/10/06 05:48:30;;;;;;;9.45;5.65;;;;;;;10.23;69.90;102135.59;1732297;82;21059;-72
2021/10/06 05:50:57;;;;;;;11.53;5.83;;;;;;;10.28;69.75;102137.98;1732266;82;21857;-71
2021/10/06 05:53:24;;;;;;;10.43;5.87;;;;;;;10.32;69.53;102138.21;1732558;81;21012;-71
2021/10/06 05:55:51;;;;;;;9.33;5.53;;;;;;;10.36;69.47;102134.97;1732270;82;21410;-71
2021/10/06 05:58:18;;;;;;;9.13;5.45;;;;;;;10.41;69.16;102131.14;1732460;82;21030;-71
2021/10/06 06:00:45;;;;;;;8.53;5.45;;;;;;;10.47;68.89;102135.28;1744238;81;20940;-71
2021/10/06 06:03:11;;;;;;;9.80;5.22;;;;;;;10.51;68.55;102131.53;1762816;81;22160;-71
2021/10/06 06:05:40;;;;;;;9.23;5.50;;;;;;;10.56;68.36;102136.98;1762406;81;21033;-72
2021/10/06 06:08:08;;;;;;;7.12;5.40;;;;;;;10.62;68.28;102133.19;1762520;81;21091;-71
2021/10/06 06:10:35;;;;;;;9.78;5.17;;;;;;;10.68;67.87;102139.45;1762494;81;20945;-72
2021/10/06 06:13:02;;;;;;;7.72;5.33;;;;;;;10.72;67.66;102130.45;1762574;81;21036;-71
2021/10/06 06:15:31;;;;;;;12.55;5.42;;;;;;;10.76;67.30;102130.66;1762417;81;21850;-72
2021/10/06 06:17:57;;;;;;;8.53;4.70;;;;;;;10.79;67.02;102133.14;1761554;81;20940;-72
2021/10/06 06:20:23;;;;;;;8.63;5.47;;;;;;;10.79;66.76;102133.61;1762459;81;21004;-72
2021/10/06 06:22:51;;;;;;;12.80;5.75;;;;;;;10.79;66.60;102139.75;1762879;81;20984;-72
2021/10/06 06:25:18;;;;;;;7.28;4.53;;;;;;;10.83;66.42;102135.17;1762269;81;21438;-71
2021/10/06 06:27:44;;;;;;;8.25;5.03;;;;;;;10.85;66.31;102143.41;1757791;81;22646;-72
2021/10/06 06:30:11;;;;;;;8.30;4.92;;;;;;;10.89;65.98;102142.77;1748351;81;20869;-71
2021/10/06 06:32:41;;;;;;;11.35;5.35;;;;;;;10.92;65.82;102141.77;1762461;81;21414;-71
2021/10/06 06:35:08;;;;;;;8.80;5.03;;;;;;;10.95;65.61;102146.89;1745376;81;20964;-71
2021/10/06 06:37:34;;;;;;;10.45;4.90;;;;;;;10.98;65.43;102140.11;1732626;82;20999;-71
2021/10/06 06:40:01;;;;;;;10.38;4.85;;;;;;;11.02;65.41;102144.31;1732278;82;21462;-71
2021/10/06 06:42:27;;;;;;;7.17;5.12;;;;;;;11.06;65.30;102144.05;1732492;82;21394;-71
2021/10/06 06:44:54;;;;;;;9.95;5.00;;;;;;;11.11;65.40;102147.80;1732097;82;21002;-72
2021/10/06 06:47:21;;;;;;;11.03;5.45;;;;;;;11.19;65.52;102150.86;1732632;82;21486;-72
2021/10/06 06:49:47;;;;;;;10.23;6.03;;;;;;;11.27;65.40;102154.42;1732232;82;20952;-71
2021/10/06 06:52:13;;;;;;;9.65;5.75;;;;;;;11.32;65.40;102155.89;1733467;81;22263;-72
2021/10/06 06:54:40;;;;;;;7.47;5.42;;;;;;;11.36;65.28;102149.48;1732147;82;21473;-72
2021/10/06 06:57:08;;;;;;;9.48;5.60;;;;;;;11.34;65.05;102157.98;1732513;81;21026;-71
2021/10/06 06:59:35;;;;;;;10.20;5.75;;;;;;;11.25;64.57;102153.18;1732186;81;20960;-72
2021/10/06 07:02:02;;;;;;;13.65;6.03;;;;;;;11.09;64.60;102164.19;1703327;82;21547;-71
2021/10/06 07:04:28;;;;;;;9.03;5.25;;;;;;;10.99;64.66;102162.49;1732164;82;21834;-72
2021/10/06 07:06:57;;;;;;;11.28;5.55;;;;;;;10.97;64.50;102163.52;1732493;82;20958;-71
2021/10/06 07:09:29;;;;;;;9.45;5.50;;;;;;;10.96;64.41;102164.45;1732926;81;20998;-72
2021/10/06 07:11:53;;;;;;;10.72;5.17;;;;;;;10.96;64.06;102164.45;1731406;82;20951;-71
2021/10/06 07:14:19;;;;;;;16.40;5.65;;;;;;;10.94;63.99;102163.69;1732060;82;21007;-72
2021/10/06 07:16:46;;;;;;;8.43;5.35;;;;;;;10.95;63.72;102157.00;1732221;82;22657;-72
2021/10/06 07:19:12;;;;;;;6.25;4.87;;;;;;;11.00;63.80;102152.77;1732192;82;20860;-72
2021/10/06 07:21:44;;;;;;;9.85;5.65;;;;;;;11.07;63.62;102152.37;1732202;82;21003;-72
2021/10/06 07:24:08;;;;;;;8.93;4.87;;;;;;;11.14;63.22;102150.27;1731510;81;21043;-71
2021/10/06 07:26:35;;;;;;;8.53;5.33;;;;;;;11.18;62.96;102148.68;1733201;81;20932;-71
2021/10/06 07:29:02;;;;;;;10.32;4.85;;;;;;;11.22;62.64;102148.06;1732160;82;22475;-72
2021/10/06 07:31:31;;;;;;;11.03;5.00;;;;;;;11.22;62.47;102153.36;1732189;82;21039;-72
2021/10/06 07:33:57;;;;;;;11.45;4.97;;;;;;;11.25;62.52;102149.69;1732477;82;21008;-71
2021/10/06 07:36:26;;;;;;;9.80;4.92;;;;;;;11.32;62.44;102147.95;1732313;82;20964;-70
2021/10/06 07:38:54;;;;;;;5.90;4.45;;;;;;;11.38;62.29;102143.62;1732591;82;21002;-71
2021/10/06 07:41:20;;;;;;;6.92;4.15;;;;;;;11.44;61.90;102151.25;1732028;82;22209;-71
2021/10/06 07:43:47;;;;;;;8.65;4.37;;;;;;;11.53;61.80;102149.89;1733228;81;21648;-71
2021/10/06 07:46:14;;;;;;;8.95;4.22;;;;;;;11.62;61.39;102151.17;1732240;82;20948;-71
2021/10/06 07:48:41;;;;;;;6.62;4.08;;;;;;;11.67;60.41;102143.81;1732561;82;20991;-71
2021/10/06 07:51:08;;;;;;;10.15;4.03;;;;;;;11.70;60.35;102151.61;1732251;81;21018;-71
2021/10/06 07:53:35;;;;;;;7.80;4.25;;;;;;;11.70;60.17;102139.70;1732358;82;22612;-71
2021/10/06 07:56:01;;;;;;;8.40;4.00;;;;;;;11.70;59.83;102145.84;1732269;82;21231;-72
2021/10/06 07:58:30;;;;;;;6.50;3.58;;;;;;;11.67;59.25;102149.11;1732320;81;20967;-72
2021/10/06 08:00:56;;;;;;;16.55;4.08;;;;;;;11.64;58.05;102147.97;1733300;81;21446;-71
2021/10/06 08:03:23;;;;;;;11.70;4.08;;;;;;;11.68;57.38;102150.84;1732660;82;21358;-72
2021/10/06 08:05:49;;;;;;;8.25;3.45;;;;;;;11.69;57.57;102145.94;1732354;82;22189;-71
2021/10/06 08:08:16;;;;;;;6.75;3.30;;;;;;;11.74;57.33;102147.84;1732529;82;20936;-71
2021/10/06 08:10:43;;;;;;;11.78;3.87;;;;;;;11.83;55.40;102142.06;1732178;82;20956;-71
2021/10/06 08:13:11;;;;;;;18.90;3.20;;;;;;;11.88;54.07;102133.41;1732513;82;21470;-71
2021/10/06 08:15:38;;;;;;;8.03;3.12;;;;;;;11.88;52.44;102137.38;1732420;82;20959;-71
2021/10/06 08:18:04;;;;;;;6.08;3.02;;;;;;;11.88;52.27;102141.34;1733592;81;22154;-72
2021/10/06 08:20:33;;;;;;;5.08;3.15;;;;;;;11.95;52.30;102136.53;1732180;82;20999;-72
2021/10/06 08:23:01;;;;;;;5.30;2.77;;;;;;;12.02;51.55;102126.83;1732290;82;20988;-72
2021/10/06 08:25:28;;;;;;;10.48;2.80;;;;;;;12.10;49.97;102138.78;1732103;81;21427;-72
2021/10/06 08:27:54;;;;;;;8.70;2.70;;;;;;;12.12;48.77;102132.45;1732417;82;21433;-72
2021/10/06 08:30:22;;;;;;;8.33;2.60;;;;;;;12.13;48.54;102123.56;1732234;82;21717;-71
2021/10/06 08:32:50;;;;;;;8.08;3.08;;;;;;;12.18;48.73;102124.16;1733215;81;21000;-73
2021/10/06 08:35:16;;;;;;;8.98;2.72;;;;;;;12.23;48.41;102117.25;1732307;82;20984;-72
2021/10/06 08:37:43;;;;;;;8.90;3.12;;;;;;;12.27;47.84;102117.47;1732238;82;21008;-72
2021/10/06 08:40:10;;;;;;;7.05;2.90;;;;;;;12.36;48.22;102112.95;1703543;82;21458;-72
2021/10/06 08:42:38;;;;;;;5.92;3.25;;;;;;;12.46;48.07;102114.59;1732385;82;21819;-71
2021/10/06 08:45:07;;;;;;;9.25;3.60;;;;;;;12.53;48.00;102120.73;1732511;82;20952;-72
2021/10/06 08:47:38;;;;;;;4.65;2.85;;;;;;;12.61;47.63;102125.11;1732337;82;20956;-72
2021/10/06 08:50:07;;;;;;;6.58;3.25;;;;;;;12.70;45.69;102125.50;1706945;80;21052;-72
2021/10/06 08:52:34;;;;;;;7.80;3.30;;;;;;;12.72;45.96;102119.16;1762609;81;21449;-72
2021/10/06 08:55:02;;;;;;;6.87;3.33;;;;;;;12.71;46.03;102117.45;1762851;81;21770;-72
2021/10/06 08:57:28;;;;;;;9.85;3.02;;;;;;;12.74;46.59;102108.01;1762511;81;21526;-72
2021/10/06 08:59:54;;;;;;;6.08;3.47;;;;;;;12.78;47.23;102113.48;1762577;81;20980;-72
2021/10/06 09:02:21;;;;;;;5.20;2.80;;;;;;;12.88;46.97;102108.48;1762564;81;21031;-72
2021/10/06 09:04:48;;;;;;;7.67;3.35;;;;;;;12.94;47.21;102104.13;1732704;81;21026;-73
2021/10/06 09:07:14;;;;;;;7.22;3.17;;;;;;;13.05;47.18;102108.29;1757043;81;21875;-72
2021/10/06 09:09:41;;;;;;;6.05;3.05;;;;;;;13.16;46.91;102103.64;1732680;82;21422;-71
2021/10/06 09:12:17;;;;;;;5.30;3.02;;;;;;;13.23;47.07;102106.80;1732344;82;20948;-72
2021/10/06 09:14:47;;;;;;;6.60;3.02;;;;;;;13.30;47.15;102108.09;1732268;82;21008;-72
2021/10/06 09:17:16;;;;;;;3.20;2.87;;;;;;;13.33;46.45;102107.45;1732286;82;21011;-73
2021/10/06 09:19:45;;;;;;;3.77;2.92;;;;;;;13.32;46.71;102104.89;1732292;82;21412;-72
2021/10/06 09:22:16;;;;;;;5.42;2.90;;;;;;;13.25;46.71;102094.28;1732309;82;20980;-72
2021/10/06 09:24:49;;;;;;;3.37;2.80;;;;;;;13.26;47.54;102095.51;1733208;81;20999;-72
2021/10/06 09:27:29;;;;;;;4.80;3.08;;;;;;;13.36;46.98;102093.12;1736137;82;20960;-72
2021/10/06 09:30:02;;;;;;;7.03;2.87;;;;;;;13.41;47.22;102089.23;1742103;81;21015;-72
2021/10/06 09:32:36;;;;;;;5.15;3.05;;;;;;;13.61;47.06;102093.73;1746588;81;21771;-72
2021/10/06 09:35:18;;;;;;;4.55;2.62;;;;;;;13.77;45.78;102089.11;1734688;81;20996;-72
2021/10/06 09:37:49;;;;;;;5.72;2.67;;;;;;;13.93;45.15;102084.98;1744011;82;20991;-72
2021/10/06 09:40:18;;;;;;;3.70;2.67;;;;;;;14.01;44.42;102079.53;1794024;80;20967;-73
2021/10/06 09:42:52;;;;;;;7.45;2.85;;;;;;;14.11;45.12;102080.25;1820797;78;20947;-73
2021/10/06 09:45:22;;;;;;;8.03;2.50;;;;;;;14.30;44.70;102072.26;1826844;78;22462;-72
2021/10/06 09:48:09;;;;;;;4.40;2.70;;;;;;;14.56;44.15;102073.14;1826998;78;21410;-72
2021/10/06 09:50:43;;;;;;;4.72;2.60;;;;;;;14.76;44.01;102071.75;1826552;78;20931;-71
2021/10/06 09:53:16;;;;;;;2.87;2.20;;;;;;;14.96;43.91;102066.38;1827000;78;20991;-71
2021/10/06 09:55:48;;;;;;;3.37;2.20;;;;;;;15.11;41.07;102072.41;1826934;78;21046;-71
2021/10/06 09:58:17;;;;;;;3.35;2.27;;;;;;;15.06;41.40;102063.91;1800928;78;21806;-71
2021/10/06 10:00:46;;;;;;;6.08;2.27;;;;;;;15.04;41.77;102063.15;1826560;78;20956;-71
2021/10/06 10:03:12;;;;;;;5.87;2.40;;;;;;;15.13;41.75;102066.00;1801470;78;21050;-71
2021/10/06 10:05:43;;;;;;;3.33;2.10;;;;;;;15.20;40.61;102069.09;1826598;78;21062;-71
2021/10/06 10:08:09;;;;;;;2.15;1.80;;;;;;;15.22;40.59;102059.66;1826721;78;21078;-71
2021/10/06 10:10:37;;;;;;;3.83;2.10;;;;;;;15.21;40.42;102058.80;1826596;78;22637;-71
2021/10/06 10:13:06;;;;;;;4.53;2.10;;;;;;;15.20;39.91;102067.75;1826674;78;20924;-71
2021/10/06 10:15:32;;;;;;;3.95;2.05;;;;;;;15.15;40.09;102052.13;1825356;78;21471;-72
2021/10/06 10:18:06;;;;;;;3.55;1.98;;;;;;;15.16;40.98;102053.83;1826939;78;21384;-71
2021/10/06 10:20:37;;;;;;;3.87;2.17;;;;;;;15.25;40.27;102056.31;1826653;78;21003;-71
2021/10/06 10:23:04;;;;;;;4.08;2.33;;;;;;;15.21;39.71;102043.31;1826847;78;21778;-71
2021/10/06 10:25:41;;;;;;;3.42;2.20;;;;;;;15.15;39.57;102045.92;1826307;78;21498;-71
2021/10/06 10:28:23;;;;;;;7.22;2.10;;;;;;;15.25;39.52;102039.45;1802939;78;20947;-72
2021/10/06 10:30:59;;;;;;;4.58;2.12;;;;;;;15.50;39.16;102035.86;1826831;78;21493;-71
2021/10/06 10:33:51;;;;;;;2.95;2.17;;;;;;;15.78;38.15;102031.55;1803784;78;21449;-71
2021/10/06 10:36:37;;;;;;;4.08;2.02;;;;;;;15.98;37.11;102030.05;1794087;80;21849;-72
2021/10/06 10:39:06;;;;;;;4.03;2.20;;;;;;;16.15;36.83;102028.77;1794326;80;20943;-71
2021/10/06 10:41:48;;;;;;;7.45;2.08;;;;;;;16.31;36.61;102026.14;1794255;80;20982;-71
2021/10/06 10:44:24;;;;;;;5.75;2.10;;;;;;;16.41;36.64;102025.43;1794434;80;20975;-71
2021/10/06 10:47:02;;;;;;;4.00;1.72;;;;;;;16.52;35.96;102023.62;1771737;78;21525;-71
2021/10/06 10:49:48;;;;;;;3.17;2.08;;;;;;;16.62;35.04;102028.23;1795432;78;20999;-71
2021/10/06 10:52:16;;;;;;;6.60;2.12;;;;;;;16.50;35.44;102026.89;1794147;80;20947;-71
2021/10/06 10:54:44;;;;;;;7.15;2.30;;;;;;;16.52;35.94;102020.95;1794095;80;20999;-71
2021/10/06 10:57:25;;;;;;;4.15;2.15;;;;;;;16.72;36.16;102023.90;1793911;80;21490;-71
2021/10/06 10:59:54;;;;;;;6.58;2.20;;;;;;;16.83;34.73;102010.06;1794280;80;21513;-71
2021/10/06 11:02:33;;;;;;;6.22;2.20;;;;;;;16.80;34.10;102013.47;1794107;80;21798;-71
2021/10/06 11:05:03;;;;;;;4.90;1.80;;;;;;;16.75;34.83;102021.83;1793982;80;21030;-71
2021/10/06 11:07:29;;;;;;;3.52;2.00;;;;;;;16.81;34.31;102012.50;1795025;78;21018;-72
2021/10/06 11:10:01;;;;;;;4.10;1.90;;;;;;;16.83;33.57;102002.54;1794106;78;21027;-71
2021/10/06 11:12:31;;;;;;;6.23;1.83;;;;;;;16.72;33.49;102003.89;1794495;80;21459;-71
2021/10/06 11:15:18;;;;;;;3.20;2.05;;;;;;;16.56;33.10;102004.20;1794206;80;21903;-71
2021/10/06 11:18:08;;;;;;;6.65;2.05;;;;;;;16.40;33.64;102007.22;1794231;80;20947;-71
2021/10/06 11:20:48;;;;;;;8.43;1.80;;;;;;;16.34;33.61;101998.87;1794064;80;21350;-72
2021/10/06 11:23:39;;;;;;;4.35;2.00;;;;;;;16.33;33.17;102002.02;1795677;78;21414;-71
2021/10/06 11:26:13;;;;;;;3.45;1.90;;;;;;;16.38;33.42;102000.31;1793856;78;20958;-70
2021/10/06 11:28:46;;;;;;;;;;;;;;;16.47;34.38;101999.11;1767187;80;21772;-71
2021/10/06 11:31:13;;;;;;;3.50;1.87;;;;;;;16.65;34.36;101998.14;1790649;78;20769;-71